createdAt,value
2023-08-08T00:02:48.546Z,0.80
2023-08-08T00:05:51.689Z,0.63
2023-08-08T00:08:54.442Z,0.85
2023-08-08T00:11:59.093Z,0.70
2023-08-08T00:15:02.333Z,1.00
2023-08-08T00:18:05.893Z,0.90
2023-08-08T00:21:08.710Z,0.80
2023-08-08T00:24:11.846Z,1.00
2023-08-08T00:27:14.890Z,0.90
2023-08-08T00:30:17.966Z,1.02
2023-08-08T00:33:20.800Z,0.93
2023-08-08T00:36:24.242Z,0.73
2023-08-08T00:39:27.051Z,0.80
2023-08-08T00:42:30.141Z,0.80
2023-08-08T00:45:33.144Z,1.10
2023-08-08T00:48:36.417Z,1.10
2023-08-08T00:51:39.530Z,0.97
2023-08-08T00:54:42.777Z,1.25
2023-08-08T00:57:45.754Z,1.12
2023-08-08T01:04:27.365Z,1.10
2023-08-08T01:07:45.535Z,1.07
2023-08-08T01:10:48.496Z,0.95
2023-08-08T01:13:53.678Z,1.10
2023-08-08T01:17:01.328Z,0.90
2023-08-08T01:20:09.044Z,1.00
2023-08-08T01:23:25.827Z,1.10
2023-08-08T01:26:30.625Z,0.93
2023-08-08T01:29:33.620Z,1.00
2023-08-08T01:32:36.639Z,1.20
2023-08-08T01:35:43.300Z,1.30
2023-08-08T01:38:50.330Z,1.07
2023-08-08T01:41:55.292Z,1.10
2023-08-08T01:44:58.984Z,0.90
2023-08-08T01:48:16.868Z,0.80
2023-08-08T01:51:19.949Z,0.90
2023-08-08T01:54:24.420Z,1.10
2023-08-08T01:57:27.639Z,0.90
2023-08-08T02:00:31.091Z,0.95
2023-08-08T02:03:34.752Z,1.12
2023-08-08T02:06:37.637Z,1.00
2023-08-08T02:09:41.241Z,1.20
2023-08-08T02:12:45.843Z,0.90
2023-08-08T02:15:49.135Z,1.20
2023-08-08T02:18:52.538Z,1.20
2023-08-08T02:21:55.594Z,1.33
2023-08-08T02:24:58.397Z,1.20
2023-08-08T02:28:01.738Z,1.35
2023-08-08T02:31:04.871Z,1.60
2023-08-08T02:34:07.736Z,1.33
2023-08-08T02:37:10.835Z,1.20
2023-08-08T02:40:13.625Z,1.20
2023-08-08T02:43:18.058Z,1.37
2023-08-08T02:46:21.020Z,1.20
2023-08-08T02:49:24.635Z,1.10
2023-08-08T02:52:27.684Z,1.30
2023-08-08T02:55:30.931Z,1.20
2023-08-08T02:58:33.830Z,0.98
2023-08-08T03:01:40.742Z,1.45
2023-08-08T03:04:44.963Z,2.08
2023-08-08T03:07:48.185Z,2.20
2023-08-08T03:10:51.300Z,1.90
2023-08-08T03:13:54.510Z,2.05
2023-08-08T03:16:59.258Z,1.80
2023-08-08T03:20:04.904Z,1.60
2023-08-08T03:23:07.855Z,1.70
2023-08-08T03:26:12.618Z,1.60
2023-08-08T03:29:15.396Z,1.52
2023-08-08T03:32:19.650Z,1.60
2023-08-08T03:35:22.655Z,1.75
2023-08-08T03:38:26.097Z,1.90
2023-08-08T03:41:29.188Z,1.40
2023-08-08T03:44:32.464Z,1.52
2023-08-08T03:47:35.600Z,1.30
2023-08-08T03:50:38.925Z,1.20
2023-08-08T03:53:41.725Z,1.80
2023-08-08T03:56:44.921Z,1.70
2023-08-08T03:59:48.335Z,2.00
2023-08-08T04:02:51.672Z,1.62
2023-08-08T04:05:55.069Z,1.90
2023-08-08T04:08:57.949Z,2.20
2023-08-08T04:12:01.406Z,1.70
2023-08-08T04:15:04.949Z,1.70
2023-08-08T04:18:08.137Z,1.70
2023-08-08T04:21:10.994Z,2.03
2023-08-08T04:24:14.401Z,2.10
2023-08-08T04:27:17.326Z,2.30
2023-08-08T04:30:20.673Z,2.22
2023-08-08T04:33:23.408Z,1.95
2023-08-08T04:36:26.726Z,2.20
2023-08-08T04:39:29.552Z,1.90
2023-08-08T04:42:33.265Z,1.90
2023-08-08T04:45:36.116Z,2.40
2023-08-08T04:48:39.583Z,2.42
2023-08-08T04:51:42.359Z,2.30
2023-08-08T04:54:45.859Z,2.10
2023-08-08T04:57:48.697Z,2.10
2023-08-08T05:00:56.356Z,2.25
2023-08-08T05:03:59.237Z,2.12
2023-08-08T05:07:02.439Z,2.00
2023-08-08T05:10:06.460Z,2.37
2023-08-08T05:13:10.750Z,1.90
2023-08-08T05:16:13.772Z,1.80
2023-08-08T05:19:17.086Z,2.10
2023-08-08T05:22:19.908Z,1.85
2023-08-08T05:25:23.199Z,1.90
2023-08-08T05:28:25.980Z,2.07
2023-08-08T05:31:29.265Z,1.60
2023-08-08T05:34:34.309Z,1.98
2023-08-08T05:37:38.095Z,1.90
2023-08-08T05:40:41.389Z,1.70
2023-08-08T05:43:45.822Z,1.70
2023-08-08T05:46:49.049Z,1.40
2023-08-08T05:49:52.347Z,2.00
2023-08-08T05:52:55.136Z,1.50
2023-08-08T05:55:58.621Z,1.67
2023-08-08T05:59:01.393Z,1.60
2023-08-08T06:02:04.795Z,1.48
2023-08-08T06:05:09.010Z,1.52
2023-08-08T06:08:13.533Z,1.23
2023-08-08T06:11:16.857Z,1.20
2023-08-08T06:14:19.759Z,1.40
2023-08-08T06:17:24.898Z,1.20
2023-08-08T06:20:27.869Z,1.60
2023-08-08T06:23:30.961Z,1.60
2023-08-08T06:26:33.974Z,1.33
2023-08-08T06:29:36.997Z,0.97
2023-08-08T06:32:39.899Z,1.40
2023-08-08T06:35:43.400Z,1.30
2023-08-08T06:38:46.373Z,1.30
2023-08-08T06:41:49.623Z,1.23
2023-08-08T06:44:54.818Z,1.30
2023-08-08T06:47:58.473Z,1.33
2023-08-08T06:51:01.363Z,1.30
2023-08-08T06:54:04.871Z,1.50
2023-08-08T06:57:07.844Z,1.57
2023-08-08T07:00:15.009Z,1.37
2023-08-08T07:03:17.877Z,1.30
2023-08-08T07:06:21.706Z,1.27
2023-08-08T07:09:25.955Z,1.20
2023-08-08T07:12:29.085Z,1.30
2023-08-08T07:15:32.514Z,1.30
2023-08-08T07:18:35.721Z,1.70
2023-08-08T07:21:38.643Z,1.40
2023-08-08T07:24:41.724Z,1.25
2023-08-08T07:27:44.498Z,1.27
2023-08-08T07:30:47.539Z,1.23
2023-08-08T07:33:50.360Z,1.33
2023-08-08T07:36:53.386Z,1.30
2023-08-08T07:39:56.351Z,1.60
2023-08-08T07:42:59.435Z,1.40
2023-08-08T07:46:02.254Z,1.23
2023-08-08T07:49:06.196Z,1.10
2023-08-08T07:52:09.309Z,1.50
2023-08-08T07:55:12.464Z,1.23
2023-08-08T07:58:15.557Z,1.20
2023-08-08T08:01:19.805Z,1.10
2023-08-08T08:04:23.006Z,1.10
2023-08-08T08:07:25.932Z,1.30
2023-08-08T08:10:29.188Z,1.15
2023-08-08T08:13:31.998Z,1.07
2023-08-08T08:16:35.244Z,1.00
2023-08-08T08:19:38.475Z,1.17
2023-08-08T08:22:41.628Z,1.02
2023-08-08T08:25:44.469Z,1.08
2023-08-08T08:28:47.654Z,1.10
2023-08-08T08:31:50.441Z,1.10
2023-08-08T08:34:53.531Z,1.30
2023-08-08T08:37:56.361Z,1.17
2023-08-08T08:41:00.338Z,1.17
2023-08-08T08:44:05.580Z,1.00
2023-08-08T08:47:12.282Z,1.13
2023-08-08T08:50:16.902Z,1.20
2023-08-08T08:53:20.394Z,1.10
2023-08-08T08:56:24.296Z,1.62
2023-08-08T08:59:27.671Z,1.30
2023-08-08T09:02:30.566Z,1.20
2023-08-08T09:05:35.150Z,1.20
2023-08-08T09:08:38.129Z,1.30
2023-08-08T09:11:42.071Z,1.10
2023-08-08T09:14:45.103Z,1.20
2023-08-08T09:17:49.483Z,1.33
2023-08-08T09:20:52.870Z,1.40
2023-08-08T09:23:55.996Z,1.20
2023-08-08T09:26:58.730Z,1.50
2023-08-08T09:30:02.184Z,1.50
2023-08-08T09:33:05.625Z,1.30
2023-08-08T09:36:16.933Z,1.50
2023-08-08T09:39:19.783Z,1.58
2023-08-08T09:42:23.086Z,1.70
2023-08-08T09:45:26.087Z,1.47
2023-08-08T09:48:33.726Z,1.23
2023-08-08T09:51:36.909Z,1.20
2023-08-08T09:54:40.458Z,1.60
2023-08-08T09:57:43.844Z,1.27
2023-08-08T10:00:47.574Z,1.27
2023-08-08T10:03:53.267Z,1.50
2023-08-08T10:06:56.060Z,1.20
2023-08-08T10:10:00.765Z,1.40
2023-08-08T10:13:03.805Z,1.12
2023-08-08T10:16:10.534Z,1.23
2023-08-08T10:19:13.801Z,1.20
2023-08-08T10:22:22.605Z,1.23
2023-08-08T10:25:28.448Z,1.42
2023-08-08T10:28:34.649Z,1.40
2023-08-08T10:31:37.997Z,1.20
2023-08-08T10:34:46.260Z,1.00
2023-08-08T10:37:55.922Z,1.20
2023-08-08T10:41:00.866Z,1.20
2023-08-08T10:44:10.449Z,1.33
2023-08-08T10:47:13.681Z,1.53
2023-08-08T10:50:23.878Z,1.33
2023-08-08T10:53:28.570Z,1.37
2023-08-08T10:56:32.466Z,1.40
2023-08-08T10:59:39.310Z,1.40
2023-08-08T11:02:42.330Z,1.70
2023-08-08T11:05:52.510Z,1.50
2023-08-08T11:08:55.894Z,1.60
2023-08-08T11:11:59.571Z,1.52
2023-08-08T11:15:02.584Z,1.58
2023-08-08T11:18:06.085Z,1.47
2023-08-08T11:21:18.095Z,1.50
2023-08-08T11:24:22.543Z,1.87
2023-08-08T11:30:36.112Z,1.30
2023-08-08T11:33:39.882Z,1.53
2023-08-08T11:36:43.085Z,1.50
2023-08-08T11:39:46.482Z,1.50
2023-08-08T11:42:51.757Z,1.40
2023-08-08T11:45:55.142Z,1.33
2023-08-08T11:49:07.825Z,1.40
2023-08-08T11:52:10.975Z,1.50
2023-08-08T11:55:14.536Z,1.40
2023-08-08T11:58:18.581Z,1.48
2023-08-08T12:01:26.255Z,1.05
2023-08-08T12:04:29.478Z,1.00
2023-08-08T12:07:34.899Z,0.97
2023-08-08T12:10:38.002Z,1.15
2023-08-08T12:13:43.037Z,0.70
2023-08-08T12:16:46.186Z,1.00
2023-08-08T12:19:49.670Z,0.70
2023-08-08T12:22:53.053Z,0.80
2023-08-08T12:25:55.956Z,0.57
2023-08-08T12:28:59.085Z,0.65
2023-08-08T12:32:03.919Z,0.60
2023-08-08T12:35:07.742Z,0.80
2023-08-08T12:38:11.688Z,0.60
2023-08-08T12:41:14.965Z,0.77
2023-08-08T12:44:17.775Z,0.70
2023-08-08T12:47:22.430Z,0.80
2023-08-08T12:50:25.236Z,1.00
2023-08-08T12:53:28.762Z,0.80
2023-08-08T12:56:31.811Z,1.50
2023-08-08T12:59:34.836Z,0.88
2023-08-08T13:02:38.918Z,0.77
2023-08-08T13:05:42.251Z,1.87
2023-08-08T13:08:45.082Z,0.97
2023-08-08T13:11:48.277Z,0.93
2023-08-08T13:14:51.013Z,1.48
2023-08-08T13:17:54.173Z,1.30
2023-08-08T13:20:56.933Z,0.80
2023-08-08T13:24:00.118Z,0.90
2023-08-08T13:27:02.930Z,0.90
2023-08-08T13:30:07.200Z,0.80
2023-08-08T13:33:10.969Z,0.98
2023-08-08T13:36:14.152Z,1.00
2023-08-08T13:39:16.904Z,1.40
2023-08-08T13:42:19.989Z,0.75
2023-08-08T13:45:23.950Z,1.00
2023-08-08T13:48:27.038Z,1.05
2023-08-08T13:51:29.744Z,1.23
2023-08-08T13:54:33.121Z,0.90
2023-08-08T13:57:36.317Z,0.93
2023-08-08T14:00:39.500Z,1.17
2023-08-08T14:03:42.956Z,1.30
2023-08-08T14:06:46.544Z,1.20
2023-08-08T14:09:49.797Z,1.30
2023-08-08T14:12:52.649Z,1.20
2023-08-08T14:15:55.759Z,1.35
2023-08-08T14:18:58.635Z,1.17
2023-08-08T14:22:02.160Z,1.17
2023-08-08T14:25:07.403Z,1.53
2023-08-08T14:28:10.552Z,1.20
2023-08-08T14:31:13.421Z,1.17
2023-08-08T14:34:17.172Z,1.00
2023-08-08T14:37:20.069Z,1.10
2023-08-08T14:40:23.226Z,0.80
2023-08-08T14:43:26.012Z,1.20
2023-08-08T14:46:30.853Z,1.20
2023-08-08T14:49:33.751Z,1.20
2023-08-08T14:52:36.814Z,1.20
2023-08-08T14:55:39.833Z,1.20
2023-08-08T14:58:43.247Z,1.30
2023-08-08T15:01:46.304Z,0.85
2023-08-08T15:04:50.692Z,1.27
2023-08-08T15:07:53.569Z,1.00
2023-08-08T15:10:58.067Z,0.87
2023-08-08T15:14:00.859Z,1.52
2023-08-08T15:17:04.060Z,1.02
2023-08-08T15:20:07.826Z,1.00
2023-08-08T15:23:11.700Z,1.20
2023-08-08T15:26:14.629Z,1.07
2023-08-08T15:29:17.816Z,1.17
2023-08-08T15:32:20.604Z,1.08
2023-08-08T15:35:26.090Z,0.95
2023-08-08T15:38:29.619Z,1.17
2023-08-08T15:41:32.691Z,1.10
2023-08-08T15:44:35.525Z,0.82
2023-08-08T15:47:39.934Z,1.30
2023-08-08T15:50:42.833Z,1.50
2023-08-08T15:53:45.930Z,1.30
2023-08-08T15:56:48.755Z,1.20
2023-08-08T15:59:51.748Z,1.20
2023-08-08T16:02:54.732Z,1.12
2023-08-08T16:05:58.219Z,1.00
2023-08-08T16:09:01.011Z,1.00
2023-08-08T16:12:04.301Z,1.10
2023-08-08T16:15:08.566Z,1.27
2023-08-08T16:18:11.942Z,1.05
2023-08-08T16:21:14.812Z,1.17
2023-08-08T16:24:17.797Z,1.23
2023-08-08T16:27:20.574Z,0.83
2023-08-08T16:30:23.535Z,0.93
2023-08-08T16:33:26.428Z,1.08
2023-08-08T16:36:29.760Z,1.40
2023-08-08T16:39:32.617Z,1.63
2023-08-08T16:42:35.724Z,0.87
2023-08-08T16:45:38.914Z,1.23
2023-08-08T16:48:42.233Z,1.20
2023-08-08T16:51:45.012Z,1.27
2023-08-08T16:54:48.659Z,1.40
2023-08-08T16:57:51.528Z,0.90
2023-08-08T17:00:55.486Z,0.88
2023-08-08T17:03:58.951Z,0.68
2023-08-08T17:07:02.420Z,1.25
2023-08-08T17:10:06.993Z,1.13
2023-08-08T17:13:12.266Z,1.10
2023-08-08T17:16:17.282Z,1.27
2023-08-08T17:19:20.940Z,2.10
2023-08-08T17:22:24.060Z,1.77
2023-08-08T17:25:27.729Z,1.50
2023-08-08T17:28:31.557Z,1.20
2023-08-08T17:31:36.633Z,1.20
2023-08-08T17:34:40.255Z,1.45
2023-08-08T17:37:43.984Z,2.23
2023-08-08T17:40:46.960Z,1.20
2023-08-08T17:43:50.491Z,1.40
2023-08-08T17:46:54.661Z,1.67
2023-08-08T17:49:59.033Z,1.40
2023-08-08T17:53:02.292Z,1.77
2023-08-08T17:56:07.982Z,1.43
2023-08-08T17:59:11.593Z,1.42
2023-08-08T18:02:15.952Z,1.75
2023-08-08T18:05:19.546Z,2.40
2023-08-08T18:08:22.685Z,2.00
2023-08-08T18:11:26.248Z,1.80
2023-08-08T18:14:40.078Z,2.17
2023-08-08T18:17:48.160Z,2.10
2023-08-08T18:20:52.241Z,1.80
2023-08-08T18:23:57.038Z,2.00
2023-08-08T18:27:07.402Z,1.97
2023-08-08T18:30:11.988Z,2.00
2023-08-08T18:33:15.794Z,2.00
2023-08-08T18:36:23.250Z,1.87
2023-08-08T18:39:26.724Z,1.70
2023-08-08T18:42:32.670Z,1.50
2023-08-08T18:45:36.180Z,1.48
2023-08-08T18:48:41.388Z,1.77
2023-08-08T18:51:48.490Z,2.40
2023-08-08T18:54:52.471Z,2.00
2023-08-08T18:57:58.603Z,1.40
2023-08-08T19:01:05.321Z,1.45
2023-08-08T19:04:08.964Z,1.58
2023-08-08T19:07:14.674Z,1.27
2023-08-08T19:10:18.492Z,1.20
2023-08-08T19:13:23.084Z,1.80
2023-08-08T19:16:27.107Z,1.20
2023-08-08T19:19:32.867Z,1.12
2023-08-08T19:22:36.523Z,1.73
2023-08-08T19:25:40.975Z,1.30
2023-08-08T19:28:46.598Z,1.30
2023-08-08T19:31:51.631Z,1.40
2023-08-08T19:34:55.010Z,1.60
2023-08-08T19:37:59.461Z,1.45
2023-08-08T19:41:02.670Z,1.50
2023-08-08T19:44:06.750Z,1.70
2023-08-08T19:47:13.520Z,1.30
2023-08-08T19:50:18.250Z,1.55
2023-08-08T19:53:21.775Z,1.40
2023-08-08T19:56:25.452Z,1.60
2023-08-08T19:59:29.036Z,1.50
2023-08-08T20:02:33.380Z,1.62
2023-08-08T20:05:37.494Z,1.50
2023-08-08T20:08:41.571Z,1.52
2023-08-08T20:11:44.925Z,1.50
2023-08-08T20:14:48.599Z,1.50
2023-08-08T20:17:53.182Z,1.30
2023-08-08T20:20:56.273Z,1.40
2023-08-08T20:23:59.907Z,1.60
2023-08-08T20:27:03.510Z,1.73
2023-08-08T20:30:08.038Z,1.50
2023-08-08T20:33:11.783Z,1.70
2023-08-08T20:36:16.055Z,1.70
2023-08-08T20:39:19.984Z,1.08
2023-08-08T20:42:24.142Z,1.47
2023-08-08T20:45:27.918Z,1.23
2023-08-08T20:48:31.946Z,1.20
2023-08-08T20:51:35.037Z,1.08
2023-08-08T20:54:38.379Z,1.10
2023-08-08T20:57:41.146Z,1.50
2023-08-08T21:00:44.690Z,1.40
2023-08-08T21:03:47.573Z,1.20
2023-08-08T21:06:51.091Z,1.37
2023-08-08T21:09:53.957Z,1.10
2023-08-08T21:12:57.090Z,1.10
2023-08-08T21:15:59.982Z,1.13
2023-08-08T21:19:03.126Z,1.37
2023-08-08T21:22:05.813Z,1.15
2023-08-08T21:25:10.030Z,1.25
2023-08-08T21:28:13.416Z,1.07
2023-08-08T21:31:17.229Z,1.00
2023-08-08T21:34:19.968Z,1.45
2023-08-08T21:37:23.111Z,1.50
2023-08-08T21:40:25.829Z,1.50
2023-08-08T21:43:29.407Z,1.57
2023-08-08T21:46:32.267Z,1.63
2023-08-08T21:49:35.338Z,1.23
2023-08-08T21:52:38.149Z,1.30
2023-08-08T21:55:41.230Z,1.02
2023-08-08T21:58:44.065Z,1.53
2023-08-08T22:01:47.272Z,1.50
2023-08-08T22:04:52.260Z,1.30
2023-08-08T22:08:00.279Z,1.10
2023-08-08T22:11:03.417Z,1.40
2023-08-08T22:14:06.402Z,1.40
2023-08-08T22:17:09.527Z,1.50
2023-08-08T22:20:12.598Z,1.35
2023-08-08T22:23:20.309Z,1.25
2023-08-08T22:26:24.278Z,1.30
2023-08-08T22:29:27.229Z,1.23
2023-08-08T22:32:30.057Z,1.50
2023-08-08T22:35:33.202Z,1.33
2023-08-08T22:38:35.966Z,1.45
2023-08-08T22:41:39.878Z,1.55
2023-08-08T22:44:42.622Z,1.20
2023-08-08T22:47:45.753Z,1.47
2023-08-08T22:50:48.918Z,1.23
2023-08-08T22:53:52.321Z,1.52
2023-08-08T22:56:55.128Z,1.85
2023-08-08T22:59:58.260Z,1.53
2023-08-08T23:03:01.274Z,1.30
2023-08-08T23:06:04.343Z,1.37
2023-08-08T23:09:07.151Z,1.10
2023-08-08T23:12:10.114Z,1.27
2023-08-08T23:15:12.974Z,1.20
2023-08-08T23:18:16.686Z,1.30
2023-08-08T23:21:19.601Z,1.25
2023-08-08T23:24:22.602Z,1.25
2023-08-08T23:27:25.305Z,1.08
2023-08-08T23:30:28.751Z,1.40
2023-08-08T23:33:31.588Z,1.20
2023-08-08T23:36:34.648Z,1.17
2023-08-08T23:39:37.738Z,1.40
2023-08-08T23:42:40.782Z,1.00
2023-08-08T23:45:43.602Z,1.43
2023-08-08T23:48:48.415Z,1.50
2023-08-08T23:51:51.256Z,1.60
2023-08-08T23:54:54.263Z,1.30
2023-08-08T23:57:57.256Z,1.45
